sensor_id;sensor_type;location;lat;lon;timestamp;P1;durP1;ratioP1;P2;durP2;ratioP2
20888;SDS011;10604;51.976;7.594;2023-03-01T00:01:17;9.43;;;8.05;;
20888;SDS011;10604;51.976;7.594;2023-03-01T00:03:46;9.55;;;7.88;;
20888;SDS011;10604;51.976;7.594;2023-03-01T00:06:12;10.35;;;8.48;;
20888;SDS011;10604;51.976;7.594;2023-03-01T00:08:37;9.87;;;8.40;;
20888;SDS011;10604;51.976;7.594;2023-03-01T00:11:16;10.77;;;8.20;;
20888;SDS011;10604;51.976;7.594;2023-03-01T00:13:46;10.20;;;8.73;;
20888;SDS011;10604;51.976;7.594;2023-03-01T00:16:17;10.57;;;8.40;;
20888;SDS011;10604;51.976;7.594;2023-03-01T00:18:45;8.88;;;7.95;;
20888;SDS011;10604;51.976;7.594;2023-03-01T00:21:11;9.73;;;8.00;;
20888;SDS011;10604;51.976;7.594;2023-03-01T00:23:36;8.57;;;7.63;;
20888;SDS011;10604;51.976;7.594;2023-03-01T00:26:05;9.27;;;7.93;;
20888;SDS011;10604;51.976;7.594;2023-03-01T00:28:31;9.85;;;7.97;;
20888;SDS011;10604;51.976;7.594;2023-03-01T00:31:02;10.10;;;7.93;;
20888;SDS011;10604;51.976;7.594;2023-03-01T00:33:31;9.32;;;7.90;;
20888;SDS011;10604;51.976;7.594;2023-03-01T00:35:58;10.60;;;8.00;;
20888;SDS011;10604;51.976;7.594;2023-03-01T00:38:24;9.68;;;8.05;;
20888;SDS011;10604;51.976;7.594;2023-03-01T00:40:49;10.27;;;8.10;;
20888;SDS011;10604;51.976;7.594;2023-03-01T00:43:14;10.27;;;8.20;;
20888;SDS011;10604;51.976;7.594;2023-03-01T00:45:40;9.90;;;8.05;;
20888;SDS011;10604;51.976;7.594;2023-03-01T00:48:05;9.40;;;7.77;;
20888;SDS011;10604;51.976;7.594;2023-03-01T00:50:31;8.43;;;7.50;;
20888;SDS011;10604;51.976;7.594;2023-03-01T00:52:56;9.55;;;8.00;;
20888;SDS011;10604;51.976;7.594;2023-03-01T00:55:22;9.90;;;7.83;;
20888;SDS011;10604;51.976;7.594;2023-03-01T00:57:48;8.38;;;7.57;;
20888;SDS011;10604;51.976;7.594;2023-03-01T01:00:14;10.07;;;7.23;;
20888;SDS011;10604;51.976;7.594;2023-03-01T01:02:40;10.13;;;8.10;;
20888;SDS011;10604;51.976;7.594;2023-03-01T01:05:05;9.07;;;7.70;;
20888;SDS011;10604;51.976;7.594;2023-03-01T01:07:31;10.02;;;7.95;;
20888;SDS011;10604;51.976;7.594;2023-03-01T01:09:57;9.60;;;8.13;;
20888;SDS011;10604;51.976;7.594;2023-03-01T01:12:22;8.87;;;7.97;;
20888;SDS011;10604;51.976;7.594;2023-03-01T01:14:48;8.93;;;8.03;;
20888;SDS011;10604;51.976;7.594;2023-03-01T01:17:13;8.57;;;7.40;;
20888;SDS011;10604;51.976;7.594;2023-03-01T01:19:38;8.67;;;7.73;;
20888;SDS011;10604;51.976;7.594;2023-03-01T01:22:04;10.20;;;7.83;;
20888;SDS011;10604;51.976;7.594;2023-03-01T01:24:29;10.07;;;8.23;;
20888;SDS011;10604;51.976;7.594;2023-03-01T01:26:55;9.00;;;8.10;;
20888;SDS011;10604;51.976;7.594;2023-03-01T01:29:20;9.93;;;8.00;;
20888;SDS011;10604;51.976;7.594;2023-03-01T01:31:46;10.07;;;8.32;;
20888;SDS011;10604;51.976;7.594;2023-03-01T01:34:13;9.67;;;8.37;;
20888;SDS011;10604;51.976;7.594;2023-03-01T01:36:40;8.93;;;8.02;;
20888;SDS011;10604;51.976;7.594;2023-03-01T01:39:06;8.95;;;8.00;;
20888;SDS011;10604;51.976;7.594;2023-03-01T01:41:32;9.90;;;8.30;;
20888;SDS011;10604;51.976;7.594;2023-03-01T01:49:16;11.77;;;9.10;;
20888;SDS011;10604;51.976;7.594;2023-03-01T01:51:46;11.73;;;8.68;;
20888;SDS011;10604;51.976;7.594;2023-03-01T01:54:14;10.77;;;8.80;;
20888;SDS011;10604;51.976;7.594;2023-03-01T01:56:44;11.52;;;9.00;;
20888;SDS011;10604;51.976;7.594;2023-03-01T01:59:15;9.20;;;8.25;;
20888;SDS011;10604;51.976;7.594;2023-03-01T02:01:40;11.15;;;8.63;;
20888;SDS011;10604;51.976;7.594;2023-03-01T02:04:06;10.90;;;8.40;;
20888;SDS011;10604;51.976;7.594;2023-03-01T02:06:33;10.75;;;8.43;;
20888;SDS011;10604;51.976;7.594;2023-03-01T02:09:13;10.20;;;8.50;;
20888;SDS011;10604;51.976;7.594;2023-03-01T02:11:40;9.85;;;7.82;;
20888;SDS011;10604;51.976;7.594;2023-03-01T02:14:07;10.53;;;8.43;;
20888;SDS011;10604;51.976;7.594;2023-03-01T02:16:32;10.13;;;8.50;;
20888;SDS011;10604;51.976;7.594;2023-03-01T02:18:58;10.50;;;8.53;;
20888;SDS011;10604;51.976;7.594;2023-03-01T02:21:30;10.68;;;8.15;;
20888;SDS011;10604;51.976;7.594;2023-03-01T02:24:07;9.30;;;8.20;;
20888;SDS011;10604;51.976;7.594;2023-03-01T02:26:46;10.68;;;8.60;;
20888;SDS011;10604;51.976;7.594;2023-03-01T02:29:15;10.57;;;8.37;;
20888;SDS011;10604;51.976;7.594;2023-03-01T02:31:40;10.10;;;8.18;;
20888;SDS011;10604;51.976;7.594;2023-03-01T02:34:07;10.40;;;8.50;;
20888;SDS011;10604;51.976;7.594;2023-03-01T02:36:36;10.60;;;8.48;;
20888;SDS011;10604;51.976;7.594;2023-03-01T02:39:05;12.00;;;8.70;;
20888;SDS011;10604;51.976;7.594;2023-03-01T02:41:34;11.02;;;8.63;;
20888;SDS011;10604;51.976;7.594;2023-03-01T02:44:02;10.45;;;8.82;;
20888;SDS011;10604;51.976;7.594;2023-03-01T02:46:29;10.35;;;8.65;;
20888;SDS011;10604;51.976;7.594;2023-03-01T02:48:55;10.60;;;8.50;;
20888;SDS011;10604;51.976;7.594;2023-03-01T02:51:25;9.95;;;8.25;;
20888;SDS011;10604;51.976;7.594;2023-03-01T02:54:04;10.00;;;8.93;;
20888;SDS011;10604;51.976;7.594;2023-03-01T02:56:40;11.35;;;8.80;;
20888;SDS011;10604;51.976;7.594;2023-03-01T02:59:08;9.93;;;8.90;;
20888;SDS011;10604;51.976;7.594;2023-03-01T03:01:34;9.70;;;8.60;;
20888;SDS011;10604;51.976;7.594;2023-03-01T03:04:03;10.18;;;8.10;;
20888;SDS011;10604;51.976;7.594;2023-03-01T03:06:30;10.88;;;8.50;;
20888;SDS011;10604;51.976;7.594;2023-03-01T03:08:56;11.13;;;8.55;;
20888;SDS011;10604;51.976;7.594;2023-03-01T03:11:22;9.83;;;8.37;;
20888;SDS011;10604;51.976;7.594;2023-03-01T03:13:48;9.93;;;8.27;;
20888;SDS011;10604;51.976;7.594;2023-03-01T03:16:14;10.13;;;8.27;;
20888;SDS011;10604;51.976;7.594;2023-03-01T03:18:40;11.10;;;8.50;;
20888;SDS011;10604;51.976;7.594;2023-03-01T03:21:08;9.93;;;8.57;;
20888;SDS011;10604;51.976;7.594;2023-03-01T03:23:36;10.82;;;8.73;;
20888;SDS011;10604;51.976;7.594;2023-03-01T03:26:01;10.57;;;9.30;;
20888;SDS011;10604;51.976;7.594;2023-03-01T03:28:29;11.50;;;9.00;;
20888;SDS011;10604;51.976;7.594;2023-03-01T03:30:55;9.48;;;7.93;;
20888;SDS011;10604;51.976;7.594;2023-03-01T03:33:21;10.80;;;8.60;;
20888;SDS011;10604;51.976;7.594;2023-03-01T03:35:48;9.85;;;8.85;;
20888;SDS011;10604;51.976;7.594;2023-03-01T03:38:14;11.05;;;8.90;;
20888;SDS011;10604;51.976;7.594;2023-03-01T03:40:43;11.27;;;9.07;;
20888;SDS011;10604;51.976;7.594;2023-03-01T03:43:28;12.83;;;8.80;;
20888;SDS011;10604;51.976;7.594;2023-03-01T03:45:54;10.65;;;8.93;;
20888;SDS011;10604;51.976;7.594;2023-03-01T03:48:22;11.88;;;9.43;;
20888;SDS011;10604;51.976;7.594;2023-03-01T03:50:48;10.53;;;8.70;;
20888;SDS011;10604;51.976;7.594;2023-03-01T03:53:15;9.98;;;8.63;;
20888;SDS011;10604;51.976;7.594;2023-03-01T03:55:41;10.30;;;8.65;;
20888;SDS011;10604;51.976;7.594;2023-03-01T03:58:07;10.07;;;8.80;;
20888;SDS011;10604;51.976;7.594;2023-03-01T04:00:38;10.20;;;9.13;;
20888;SDS011;10604;51.976;7.594;2023-03-01T04:03:05;10.95;;;8.90;;
20888;SDS011;10604;51.976;7.594;2023-03-01T04:05:30;12.25;;;9.02;;
20888;SDS011;10604;51.976;7.594;2023-03-01T04:07:56;9.33;;;8.07;;
20888;SDS011;10604;51.976;7.594;2023-03-01T04:10:32;11.70;;;9.07;;
20888;SDS011;10604;51.976;7.594;2023-03-01T04:13:00;10.27;;;8.88;;
20888;SDS011;10604;51.976;7.594;2023-03-01T04:15:25;10.83;;;9.00;;
20888;SDS011;10604;51.976;7.594;2023-03-01T04:17:52;9.88;;;8.60;;
20888;SDS011;10604;51.976;7.594;2023-03-01T04:20:19;10.60;;;8.57;;
20888;SDS011;10604;51.976;7.594;2023-03-01T04:22:57;10.07;;;8.18;;
20888;SDS011;10604;51.976;7.594;2023-03-01T04:25:35;9.50;;;8.30;;
20888;SDS011;10604;51.976;7.594;2023-03-01T04:28:18;10.82;;;8.88;;
20888;SDS011;10604;51.976;7.594;2023-03-01T04:30:49;9.88;;;8.27;;
20888;SDS011;10604;51.976;7.594;2023-03-01T04:33:15;11.93;;;8.97;;
20888;SDS011;10604;51.976;7.594;2023-03-01T04:35:41;10.82;;;8.57;;
20888;SDS011;10604;51.976;7.594;2023-03-01T04:38:07;10.73;;;8.73;;
20888;SDS011;10604;51.976;7.594;2023-03-01T04:40:33;11.65;;;8.18;;
20888;SDS011;10604;51.976;7.594;2023-03-01T04:42:59;10.95;;;8.48;;
20888;SDS011;10604;51.976;7.594;2023-03-01T04:45:24;10.27;;;8.97;;
20888;SDS011;10604;51.976;7.594;2023-03-01T04:47:49;11.00;;;8.97;;
20888;SDS011;10604;51.976;7.594;2023-03-01T04:50:17;10.18;;;8.43;;
20888;SDS011;10604;51.976;7.594;2023-03-01T04:52:45;10.63;;;8.68;;
20888;SDS011;10604;51.976;7.594;2023-03-01T04:55:12;11.68;;;9.35;;
20888;SDS011;10604;51.976;7.594;2023-03-01T04:57:38;10.10;;;8.45;;
20888;SDS011;10604;51.976;7.594;2023-03-01T05:00:04;10.50;;;9.10;;
20888;SDS011;10604;51.976;7.594;2023-03-01T05:02:52;11.43;;;9.70;;
20888;SDS011;10604;51.976;7.594;2023-03-01T05:05:32;10.98;;;8.85;;
20888;SDS011;10604;51.976;7.594;2023-03-01T05:08:02;10.40;;;9.32;;
20888;SDS011;10604;51.976;7.594;2023-03-01T05:10:30;9.80;;;8.75;;
20888;SDS011;10604;51.976;7.594;2023-03-01T05:12:57;11.07;;;9.15;;
20888;SDS011;10604;51.976;7.594;2023-03-01T05:15:26;11.73;;;9.15;;
20888;SDS011;10604;51.976;7.594;2023-03-01T05:17:55;10.65;;;8.60;;
20888;SDS011;10604;51.976;7.594;2023-03-01T05:20:23;11.73;;;9.13;;
20888;SDS011;10604;51.976;7.594;2023-03-01T05:22:49;10.90;;;8.85;;
20888;SDS011;10604;51.976;7.594;2023-03-01T05:25:15;11.93;;;9.23;;
20888;SDS011;10604;51.976;7.594;2023-03-01T05:27:40;11.90;;;9.17;;
20888;SDS011;10604;51.976;7.594;2023-03-01T05:30:06;11.20;;;9.47;;
20888;SDS011;10604;51.976;7.594;2023-03-01T05:32:42;10.05;;;9.00;;
20888;SDS011;10604;51.976;7.594;2023-03-01T05:35:12;11.07;;;8.90;;
20888;SDS011;10604;51.976;7.594;2023-03-01T05:37:42;9.50;;;8.48;;
20888;SDS011;10604;51.976;7.594;2023-03-01T05:40:12;10.18;;;8.90;;
20888;SDS011;10604;51.976;7.594;2023-03-01T05:42:50;9.60;;;8.60;;
20888;SDS011;10604;51.976;7.594;2023-03-01T05:45:19;9.55;;;8.57;;
20888;SDS011;10604;51.976;7.594;2023-03-01T05:47:46;10.73;;;8.38;;
20888;SDS011;10604;51.976;7.594;2023-03-01T05:50:14;9.97;;;8.90;;
20888;SDS011;10604;51.976;7.594;2023-03-01T05:53:04;11.03;;;9.90;;
20888;SDS011;10604;51.976;7.594;2023-03-01T05:55:31;14.02;;;11.48;;
20888;SDS011;10604;51.976;7.594;2023-03-01T05:57:57;13.10;;;11.37;;
20888;SDS011;10604;51.976;7.594;2023-03-01T06:00:27;13.27;;;10.52;;
20888;SDS011;10604;51.976;7.594;2023-03-01T06:02:54;11.98;;;10.32;;
20888;SDS011;10604;51.976;7.594;2023-03-01T06:05:20;12.30;;;9.98;;
20888;SDS011;10604;51.976;7.594;2023-03-01T06:07:45;11.60;;;10.40;;
20888;SDS011;10604;51.976;7.594;2023-03-01T06:10:11;13.97;;;10.77;;
20888;SDS011;10604;51.976;7.594;2023-03-01T06:12:38;12.98;;;10.65;;
20888;SDS011;10604;51.976;7.594;2023-03-01T06:15:05;14.00;;;11.63;;
20888;SDS011;10604;51.976;7.594;2023-03-01T06:17:33;12.50;;;10.50;;
20888;SDS011;10604;51.976;7.594;2023-03-01T06:20:07;12.82;;;10.82;;
20888;SDS011;10604;51.976;7.594;2023-03-01T06:22:37;13.23;;;11.15;;
20888;SDS011;10604;51.976;7.594;2023-03-01T06:25:03;12.73;;;10.27;;
20888;SDS011;10604;51.976;7.594;2023-03-01T06:27:29;13.15;;;9.85;;
20888;SDS011;10604;51.976;7.594;2023-03-01T06:29:55;11.43;;;9.93;;
20888;SDS011;10604;51.976;7.594;2023-03-01T06:32:20;11.83;;;9.83;;
20888;SDS011;10604;51.976;7.594;2023-03-01T06:34:46;12.80;;;9.80;;
20888;SDS011;10604;51.976;7.594;2023-03-01T06:37:11;11.00;;;9.68;;
20888;SDS011;10604;51.976;7.594;2023-03-01T06:39:37;10.73;;;9.53;;
20888;SDS011;10604;51.976;7.594;2023-03-01T06:42:02;12.17;;;9.53;;
20888;SDS011;10604;51.976;7.594;2023-03-01T06:44:28;10.70;;;9.30;;
20888;SDS011;10604;51.976;7.594;2023-03-01T06:46:53;12.53;;;9.53;;
20888;SDS011;10604;51.976;7.594;2023-03-01T06:49:19;10.43;;;9.40;;
20888;SDS011;10604;51.976;7.594;2023-03-01T06:51:45;11.77;;;9.40;;
20888;SDS011;10604;51.976;7.594;2023-03-01T06:54:11;10.35;;;9.25;;
20888;SDS011;10604;51.976;7.594;2023-03-01T06:56:37;12.95;;;9.77;;
20888;SDS011;10604;51.976;7.594;2023-03-01T06:59:02;11.40;;;9.33;;
20888;SDS011;10604;51.976;7.594;2023-03-01T07:01:28;12.10;;;9.77;;
20888;SDS011;10604;51.976;7.594;2023-03-01T07:03:55;11.15;;;9.82;;
20888;SDS011;10604;51.976;7.594;2023-03-01T07:06:20;11.32;;;9.55;;
20888;SDS011;10604;51.976;7.594;2023-03-01T07:08:46;12.02;;;10.32;;
20888;SDS011;10604;51.976;7.594;2023-03-01T07:11:12;11.80;;;10.30;;
20888;SDS011;10604;51.976;7.594;2023-03-01T07:13:38;12.88;;;10.70;;
20888;SDS011;10604;51.976;7.594;2023-03-01T07:16:03;14.43;;;11.43;;
20888;SDS011;10604;51.976;7.594;2023-03-01T07:18:29;13.23;;;10.90;;
20888;SDS011;10604;51.976;7.594;2023-03-01T07:20:54;17.60;;;12.68;;
20888;SDS011;10604;51.976;7.594;2023-03-01T07:23:20;15.93;;;11.90;;
20888;SDS011;10604;51.976;7.594;2023-03-01T07:25:50;13.63;;;12.03;;
20888;SDS011;10604;51.976;7.594;2023-03-01T07:28:17;17.00;;;12.77;;
20888;SDS011;10604;51.976;7.594;2023-03-01T07:30:42;15.47;;;12.57;;
20888;SDS011;10604;51.976;7.594;2023-03-01T07:33:07;16.40;;;12.83;;
20888;SDS011;10604;51.976;7.594;2023-03-01T07:35:33;15.40;;;12.93;;
20888;SDS011;10604;51.976;7.594;2023-03-01T07:37:58;14.00;;;12.25;;
20888;SDS011;10604;51.976;7.594;2023-03-01T07:40:24;14.15;;;11.82;;
20888;SDS011;10604;51.976;7.594;2023-03-01T07:42:49;14.17;;;10.67;;
20888;SDS011;10604;51.976;7.594;2023-03-01T07:45:20;13.13;;;10.60;;
20888;SDS011;10604;51.976;7.594;2023-03-01T07:47:45;11.07;;;9.37;;
20888;SDS011;10604;51.976;7.594;2023-03-01T07:50:11;12.23;;;9.60;;
20888;SDS011;10604;51.976;7.594;2023-03-01T07:52:36;12.67;;;9.73;;
20888;SDS011;10604;51.976;7.594;2023-03-01T07:55:01;12.20;;;9.27;;
20888;SDS011;10604;51.976;7.594;2023-03-01T07:57:27;11.80;;;8.87;;
20888;SDS011;10604;51.976;7.594;2023-03-01T07:59:52;11.03;;;9.10;;
20888;SDS011;10604;51.976;7.594;2023-03-01T08:02:18;12.67;;;9.40;;
20888;SDS011;10604;51.976;7.594;2023-03-01T08:04:43;13.52;;;8.80;;
20888;SDS011;10604;51.976;7.594;2023-03-01T08:07:09;9.97;;;8.33;;
20888;SDS011;10604;51.976;7.594;2023-03-01T08:09:35;10.13;;;8.27;;
20888;SDS011;10604;51.976;7.594;2023-03-01T08:12:01;9.32;;;8.27;;
20888;SDS011;10604;51.976;7.594;2023-03-01T08:14:28;11.80;;;8.55;;
20888;SDS011;10604;51.976;7.594;2023-03-01T08:16:53;11.60;;;8.65;;
20888;SDS011;10604;51.976;7.594;2023-03-01T08:19:19;12.38;;;8.43;;
20888;SDS011;10604;51.976;7.594;2023-03-01T08:21:45;10.40;;;7.90;;
20888;SDS011;10604;51.976;7.594;2023-03-01T08:24:11;10.63;;;8.50;;
20888;SDS011;10604;51.976;7.594;2023-03-01T08:26:36;11.73;;;8.97;;
20888;SDS011;10604;51.976;7.594;2023-03-01T08:29:02;11.38;;;8.35;;
20888;SDS011;10604;51.976;7.594;2023-03-01T08:31:29;11.27;;;8.40;;
20888;SDS011;10604;51.976;7.594;2023-03-01T08:33:58;11.10;;;8.60;;
20888;SDS011;10604;51.976;7.594;2023-03-01T08:36:26;9.98;;;8.38;;
20888;SDS011;10604;51.976;7.594;2023-03-01T08:38:54;11.20;;;8.10;;
20888;SDS011;10604;51.976;7.594;2023-03-01T08:41:20;10.57;;;8.52;;
20888;SDS011;10604;51.976;7.594;2023-03-01T08:43:46;9.73;;;7.90;;
20888;SDS011;10604;51.976;7.594;2023-03-01T08:46:11;10.50;;;8.47;;
20888;SDS011;10604;51.976;7.594;2023-03-01T08:48:37;10.95;;;7.97;;
20888;SDS011;10604;51.976;7.594;2023-03-01T08:51:07;9.23;;;8.10;;
20888;SDS011;10604;51.976;7.594;2023-03-01T08:53:34;8.90;;;7.15;;
20888;SDS011;10604;51.976;7.594;2023-03-01T08:56:00;9.48;;;7.93;;
20888;SDS011;10604;51.976;7.594;2023-03-01T08:58:27;9.70;;;8.10;;
20888;SDS011;10604;51.976;7.594;2023-03-01T09:00:53;11.88;;;7.57;;
20888;SDS011;10604;51.976;7.594;2023-03-01T09:03:18;8.50;;;7.60;;
20888;SDS011;10604;51.976;7.594;2023-03-01T09:05:43;9.53;;;7.97;;
20888;SDS011;10604;51.976;7.594;2023-03-01T09:08:10;8.52;;;7.47;;
20888;SDS011;10604;51.976;7.594;2023-03-01T09:10:37;9.47;;;7.53;;
20888;SDS011;10604;51.976;7.594;2023-03-01T09:13:04;10.85;;;7.95;;
20888;SDS011;10604;51.976;7.594;2023-03-01T09:15:29;9.83;;;7.47;;
20888;SDS011;10604;51.976;7.594;2023-03-01T09:17:55;9.23;;;7.67;;
20888;SDS011;10604;51.976;7.594;2023-03-01T09:20:20;9.77;;;8.07;;
20888;SDS011;10604;51.976;7.594;2023-03-01T09:22:46;10.38;;;7.97;;
20888;SDS011;10604;51.976;7.594;2023-03-01T09:25:11;10.93;;;7.53;;
20888;SDS011;10604;51.976;7.594;2023-03-01T09:27:37;9.27;;;7.63;;
20888;SDS011;10604;51.976;7.594;2023-03-01T09:30:02;10.57;;;7.77;;
20888;SDS011;10604;51.976;7.594;2023-03-01T09:32:32;10.60;;;7.90;;
20888;SDS011;10604;51.976;7.594;2023-03-01T09:34:57;8.90;;;7.38;;
20888;SDS011;10604;51.976;7.594;2023-03-01T09:37:32;9.00;;;7.65;;
20888;SDS011;10604;51.976;7.594;2023-03-01T09:39:59;10.88;;;8.18;;
20888;SDS011;10604;51.976;7.594;2023-03-01T09:42:25;9.40;;;7.43;;
20888;SDS011;10604;51.976;7.594;2023-03-01T09:44:51;10.00;;;7.77;;
20888;SDS011;10604;51.976;7.594;2023-03-01T09:47:26;10.02;;;7.60;;
20888;SDS011;10604;51.976;7.594;2023-03-01T09:49:58;9.27;;;7.28;;
20888;SDS011;10604;51.976;7.594;2023-03-01T09:52:46;9.90;;;7.47;;
20888;SDS011;10604;51.976;7.594;2023-03-01T09:55:16;9.50;;;6.97;;
20888;SDS011;10604;51.976;7.594;2023-03-01T10:00:59;12.13;;;6.90;;
20888;SDS011;10604;51.976;7.594;2023-03-01T10:08:30;7.53;;;6.40;;
20888;SDS011;10604;51.976;7.594;2023-03-01T10:11:01;8.30;;;6.78;;
20888;SDS011;10604;51.976;7.594;2023-03-01T10:13:43;10.27;;;7.33;;
20888;SDS011;10604;51.976;7.594;2023-03-01T10:16:22;9.07;;;7.25;;
20888;SDS011;10604;51.976;7.594;2023-03-01T10:18:58;9.50;;;6.90;;
20888;SDS011;10604;51.976;7.594;2023-03-01T10:21:27;9.85;;;7.70;;
20888;SDS011;10604;51.976;7.594;2023-03-01T10:23:56;8.93;;;7.43;;
20888;SDS011;10604;51.976;7.594;2023-03-01T10:29:06;10.17;;;7.67;;
20888;SDS011;10604;51.976;7.594;2023-03-01T10:31:46;9.98;;;7.97;;
20888;SDS011;10604;51.976;7.594;2023-03-01T10:34:16;10.68;;;8.05;;
20888;SDS011;10604;51.976;7.594;2023-03-01T10:37:12;11.15;;;8.05;;
20888;SDS011;10604;51.976;7.594;2023-03-01T10:40:02;9.88;;;7.80;;
20888;SDS011;10604;51.976;7.594;2023-03-01T10:42:36;8.93;;;7.75;;
20888;SDS011;10604;51.976;7.594;2023-03-01T10:46:04;10.10;;;8.27;;
20888;SDS011;10604;51.976;7.594;2023-03-01T10:48:12;9.30;;;7.85;;
20888;SDS011;10604;51.976;7.594;2023-03-01T10:50:38;9.85;;;8.10;;
20888;SDS011;10604;51.976;7.594;2023-03-01T10:55:58;9.65;;;8.50;;
20888;SDS011;10604;51.976;7.594;2023-03-01T10:58:39;9.55;;;7.93;;
20888;SDS011;10604;51.976;7.594;2023-03-01T11:04:11;8.90;;;7.72;;
20888;SDS011;10604;51.976;7.594;2023-03-01T11:06:39;9.95;;;8.48;;
20888;SDS011;10604;51.976;7.594;2023-03-01T11:09:30;9.98;;;8.13;;
20888;SDS011;10604;51.976;7.594;2023-03-01T11:11:57;10.48;;;8.20;;
20888;SDS011;10604;51.976;7.594;2023-03-01T11:14:26;9.43;;;7.90;;
20888;SDS011;10604;51.976;7.594;2023-03-01T11:17:03;9.85;;;8.60;;
20888;SDS011;10604;51.976;7.594;2023-03-01T11:19:30;9.02;;;8.00;;
20888;SDS011;10604;51.976;7.594;2023-03-01T11:22:01;10.90;;;8.02;;
20888;SDS011;10604;51.976;7.594;2023-03-01T11:25:12;8.93;;;7.45;;
20888;SDS011;10604;51.976;7.594;2023-03-01T11:27:32;9.77;;;7.85;;
20888;SDS011;10604;51.976;7.594;2023-03-01T11:30:05;10.20;;;8.33;;
20888;SDS011;10604;51.976;7.594;2023-03-01T11:32:42;10.23;;;8.57;;
20888;SDS011;10604;51.976;7.594;2023-03-01T11:35:15;10.48;;;8.65;;
20888;SDS011;10604;51.976;7.594;2023-03-01T11:40:54;10.02;;;8.05;;
20888;SDS011;10604;51.976;7.594;2023-03-01T11:48:52;10.13;;;8.35;;
20888;SDS011;10604;51.976;7.594;2023-03-01T11:56:46;10.95;;;8.10;;
20888;SDS011;10604;51.976;7.594;2023-03-01T12:05:24;8.80;;;7.90;;
20888;SDS011;10604;51.976;7.594;2023-03-01T12:15:49;9.25;;;7.55;;
20888;SDS011;10604;51.976;7.594;2023-03-01T12:24:08;9.15;;;6.88;;
20888;SDS011;10604;51.976;7.594;2023-03-01T12:26:48;10.40;;;6.95;;
20888;SDS011;10604;51.976;7.594;2023-03-01T12:32:13;8.30;;;6.95;;
20888;SDS011;10604;51.976;7.594;2023-03-01T12:37:57;8.60;;;7.22;;
20888;SDS011;10604;51.976;7.594;2023-03-01T12:40:34;9.00;;;7.28;;
20888;SDS011;10604;51.976;7.594;2023-03-01T12:49:05;8.02;;;7.22;;
20888;SDS011;10604;51.976;7.594;2023-03-01T12:51:36;9.65;;;7.30;;
20888;SDS011;10604;51.976;7.594;2023-03-01T12:54:16;8.70;;;7.50;;
20888;SDS011;10604;51.976;7.594;2023-03-01T12:56:47;8.88;;;7.05;;
20888;SDS011;10604;51.976;7.594;2023-03-01T13:04:51;10.13;;;7.22;;
20888;SDS011;10604;51.976;7.594;2023-03-01T13:10:20;9.73;;;7.25;;
20888;SDS011;10604;51.976;7.594;2023-03-01T13:17:58;8.55;;;6.93;;
20888;SDS011;10604;51.976;7.594;2023-03-01T13:20:27;8.43;;;6.88;;
20888;SDS011;10604;51.976;7.594;2023-03-01T13:23:13;9.52;;;7.80;;
20888;SDS011;10604;51.976;7.594;2023-03-01T13:31:03;7.90;;;6.80;;
20888;SDS011;10604;51.976;7.594;2023-03-01T13:35:56;8.77;;;6.80;;
20888;SDS011;10604;51.976;7.594;2023-03-01T13:41:11;7.95;;;6.88;;
20888;SDS011;10604;51.976;7.594;2023-03-01T13:43:38;8.13;;;6.93;;
20888;SDS011;10604;51.976;7.594;2023-03-01T13:46:25;8.70;;;6.25;;
20888;SDS011;10604;51.976;7.594;2023-03-01T13:48:51;9.85;;;6.47;;
20888;SDS011;10604;51.976;7.594;2023-03-01T13:51:21;7.78;;;6.13;;
20888;SDS011;10604;51.976;7.594;2023-03-01T13:53:50;6.65;;;5.70;;
20888;SDS011;10604;51.976;7.594;2023-03-01T13:56:18;7.55;;;5.90;;
20888;SDS011;10604;51.976;7.594;2023-03-01T13:58:53;8.07;;;6.00;;
20888;SDS011;10604;51.976;7.594;2023-03-01T14:01:27;8.27;;;6.13;;
20888;SDS011;10604;51.976;7.594;2023-03-01T14:03:55;7.35;;;6.10;;
20888;SDS011;10604;51.976;7.594;2023-03-01T14:06:22;7.05;;;5.78;;
20888;SDS011;10604;51.976;7.594;2023-03-01T14:09:15;7.55;;;5.78;;
20888;SDS011;10604;51.976;7.594;2023-03-01T14:14:32;8.02;;;6.03;;
20888;SDS011;10604;51.976;7.594;2023-03-01T14:20:47;6.90;;;6.20;;
20888;SDS011;10604;51.976;7.594;2023-03-01T14:22:57;9.50;;;6.00;;
20888;SDS011;10604;51.976;7.594;2023-03-01T14:25:31;8.13;;;6.03;;
20888;SDS011;10604;51.976;7.594;2023-03-01T14:30:45;7.30;;;6.28;;
20888;SDS011;10604;51.976;7.594;2023-03-01T14:35:51;7.38;;;6.30;;
20888;SDS011;10604;51.976;7.594;2023-03-01T14:38:46;8.70;;;5.90;;
20888;SDS011;10604;51.976;7.594;2023-03-01T14:41:15;9.10;;;6.53;;
20888;SDS011;10604;51.976;7.594;2023-03-01T14:43:50;7.45;;;6.03;;
20888;SDS011;10604;51.976;7.594;2023-03-01T14:46:31;7.32;;;6.20;;
20888;SDS011;10604;51.976;7.594;2023-03-01T14:49:03;10.40;;;6.80;;
20888;SDS011;10604;51.976;7.594;2023-03-01T14:51:36;6.78;;;5.72;;
20888;SDS011;10604;51.976;7.594;2023-03-01T14:54:03;6.65;;;5.68;;
20888;SDS011;10604;51.976;7.594;2023-03-01T14:56:45;7.97;;;5.85;;
20888;SDS011;10604;51.976;7.594;2023-03-01T14:59:11;6.38;;;5.72;;
20888;SDS011;10604;51.976;7.594;2023-03-01T15:01:37;6.65;;;5.68;;
20888;SDS011;10604;51.976;7.594;2023-03-01T15:04:04;7.45;;;5.53;;
20888;SDS011;10604;51.976;7.594;2023-03-01T15:06:30;6.75;;;5.65;;
20888;SDS011;10604;51.976;7.594;2023-03-01T15:08:55;7.43;;;5.60;;
20888;SDS011;10604;51.976;7.594;2023-03-01T15:11:28;9.37;;;6.17;;
20888;SDS011;10604;51.976;7.594;2023-03-01T15:13:56;8.98;;;6.32;;
20888;SDS011;10604;51.976;7.594;2023-03-01T15:16:23;6.93;;;5.83;;
20888;SDS011;10604;51.976;7.594;2023-03-01T15:18:55;7.90;;;5.68;;
20888;SDS011;10604;51.976;7.594;2023-03-01T15:24:16;8.02;;;5.70;;
20888;SDS011;10604;51.976;7.594;2023-03-01T15:26:49;7.82;;;5.85;;
20888;SDS011;10604;51.976;7.594;2023-03-01T15:29:20;7.43;;;5.50;;
20888;SDS011;10604;51.976;7.594;2023-03-01T15:32:24;7.38;;;5.63;;
20888;SDS011;10604;51.976;7.594;2023-03-01T15:34:51;6.80;;;6.10;;
20888;SDS011;10604;51.976;7.594;2023-03-01T15:37:38;7.20;;;5.40;;
20888;SDS011;10604;51.976;7.594;2023-03-01T15:40:32;7.30;;;5.65;;
20888;SDS011;10604;51.976;7.594;2023-03-01T15:43:00;6.75;;;5.47;;
20888;SDS011;10604;51.976;7.594;2023-03-01T15:45:28;7.20;;;5.40;;
20888;SDS011;10604;51.976;7.594;2023-03-01T15:47:55;7.90;;;5.60;;
20888;SDS011;10604;51.976;7.594;2023-03-01T15:50:27;7.35;;;5.50;;
20888;SDS011;10604;51.976;7.594;2023-03-01T15:52:54;6.85;;;5.38;;
20888;SDS011;10604;51.976;7.594;2023-03-01T15:55:22;7.80;;;5.93;;
20888;SDS011;10604;51.976;7.594;2023-03-01T15:57:56;6.80;;;5.45;;
20888;SDS011;10604;51.976;7.594;2023-03-01T16:00:25;8.25;;;5.72;;
20888;SDS011;10604;51.976;7.594;2023-03-01T16:02:51;6.70;;;5.20;;
20888;SDS011;10604;51.976;7.594;2023-03-01T16:05:24;7.43;;;5.10;;
20888;SDS011;10604;51.976;7.594;2023-03-01T16:07:51;6.57;;;5.05;;
20888;SDS011;10604;51.976;7.594;2023-03-01T16:10:17;6.93;;;5.20;;
20888;SDS011;10604;51.976;7.594;2023-03-01T16:12:43;6.20;;;5.25;;
20888;SDS011;10604;51.976;7.594;2023-03-01T16:15:12;7.43;;;5.53;;
20888;SDS011;10604;51.976;7.594;2023-03-01T16:17:43;6.10;;;5.50;;
20888;SDS011;10604;51.976;7.594;2023-03-01T16:20:09;7.15;;;5.53;;
20888;SDS011;10604;51.976;7.594;2023-03-01T16:22:35;6.50;;;5.22;;
20888;SDS011;10604;51.976;7.594;2023-03-01T16:25:00;6.60;;;5.50;;
20888;SDS011;10604;51.976;7.594;2023-03-01T16:27:27;8.32;;;5.53;;
20888;SDS011;10604;51.976;7.594;2023-03-01T16:29:52;9.60;;;5.50;;
20888;SDS011;10604;51.976;7.594;2023-03-01T16:32:18;7.68;;;5.45;;
20888;SDS011;10604;51.976;7.594;2023-03-01T16:34:43;6.90;;;5.53;;
20888;SDS011;10604;51.976;7.594;2023-03-01T16:37:08;20.33;;;11.97;;
20888;SDS011;10604;51.976;7.594;2023-03-01T16:39:34;13.20;;;9.10;;